Time,TemperatureF,DewpointF,PressureIn,WindDirection,WindDirectionDegrees,WindSpeedMPH,WindSpeedGustMPH,Humidity,HourlyPrecipIn,Conditions,Clouds,dailyrainin,SoftwareType,DateUTC
2013-09-19 00:13:00,75.0,69.0,29.83,SW,215,1.0,4.0,83,0.00,,,0.00,,2013-09-19 05:13:00,
2013-09-19 00:23:00,75.0,69.0,29.83,West,269,0.0,4.0,83,0.00,,,0.00,,2013-09-19 05:23:00,
2013-09-19 00:52:00,75.0,70.0,29.82,WSW,242,1.0,6.0,84,0.00,,,0.00,,2013-09-19 05:52:00,
2013-09-19 01:12:00,75.0,70.0,29.82,SW,229,2.0,6.0,85,0.00,,,0.00,,2013-09-19 06:12:00,
2013-09-19 01:22:00,74.0,69.0,29.82,SW,214,1.0,5.0,85,0.00,,,0.00,,2013-09-19 06:22:00,
2013-09-19 01:43:00,74.0,70.0,29.82,SSW,201,1.0,5.0,87,0.00,,,0.00,,2013-09-19 06:43:00,
2013-09-19 01:52:00,74.0,70.0,29.82,SW,224,2.0,6.0,87,0.00,,,0.00,,2013-09-19 06:52:00,
2013-09-19 02:11:00,74.0,70.0,29.82,SSW,204,2.0,5.0,88,0.00,,,0.00,,2013-09-19 07:11:00,
2013-09-19 02:22:00,74.0,71.0,29.82,WSW,247,2.0,7.0,89,0.00,,,0.00,,2013-09-19 07:22:00,
2013-09-19 02:42:00,74.0,71.0,29.81,WSW,239,1.0,4.0,90,0.00,,,0.00,,2013-09-19 07:42:00,
2013-09-19 02:52:00,74.0,71.0,29.80,WSW,246,1.0,5.0,91,0.00,,,0.00,,2013-09-19 07:52:00,
2013-09-19 03:12:00,74.0,71.0,29.80,SSW,194,1.0,5.0,91,0.00,,,0.00,,2013-09-19 08:12:00,
2013-09-19 03:22:00,73.0,71.0,29.80,SW,224,0.0,3.0,92,0.00,,,0.00,,2013-09-19 08:22:00,
2013-09-19 03:52:00,73.0,71.0,29.80,WSW,238,0.0,3.0,93,0.00,,,0.00,,2013-09-19 08:52:00,
2013-09-19 04:11:00,73.0,71.0,29.80,SW,226,0.0,2.0,93,0.00,,,0.00,,2013-09-19 09:11:00,
2013-09-19 04:21:00,73.0,71.0,29.80,WSW,238,0.0,2.0,94,0.00,,,0.00,,2013-09-19 09:21:00,
2013-09-19 04:53:00,73.0,71.0,29.80,West,264,0.0,2.0,94,0.00,,,0.00,,2013-09-19 09:53:00,
2013-09-19 05:12:00,73.0,71.0,29.79,SW,233,0.0,2.0,94,0.00,,,0.00,,2013-09-19 10:12:00,
2013-09-19 05:23:00,73.0,71.0,29.79,SW,226,0.0,2.0,95,0.00,,,0.00,,2013-09-19 10:23:00,
2013-09-19 05:43:00,73.0,71.0,29.79,SW,221,0.0,4.0,95,0.00,,,0.00,,2013-09-19 10:43:00,
2013-09-19 05:52:00,73.0,71.0,29.79,SSW,204,0.0,2.0,95,0.00,,,0.00,,2013-09-19 10:52:00,
2013-09-19 06:12:00,73.0,71.0,29.79,SW,215,0.0,3.0,95,0.00,,,0.00,,2013-09-19 11:12:00,
2013-09-19 06:22:00,73.0,71.0,29.80,SSW,205,0.0,3.0,95,0.00,,,0.00,,2013-09-19 11:22:00,
2013-09-19 06:42:00,73.0,71.0,29.79,SSW,193,0.0,2.0,95,0.00,,,0.00,,2013-09-19 11:42:00,
2013-09-19 06:52:00,73.0,71.0,29.79,South,190,0.0,2.0,95,0.00,,,0.00,,2013-09-19 11:52:00,
2013-09-19 07:11:00,73.0,71.0,29.79,ESE,117,0.0,3.0,95,0.00,,,0.00,,2013-09-19 12:11:00,
2013-09-19 07:21:00,73.0,71.0,29.80,SW,225,0.0,2.0,95,0.00,,,0.00,,2013-09-19 12:21:00,
2013-09-19 07:52:00,73.0,72.0,29.80,SE,145,1.0,4.0,96,0.03,,,0.03,,2013-09-19 12:52:00,
2013-09-19 08:11:00,73.0,72.0,29.81,WSW,243,0.0,2.0,96,0.03,,,0.03,,2013-09-19 13:11:00,
2013-09-19 08:21:00,73.0,72.0,29.81,WSW,243,0.0,4.0,97,0.03,,,0.03,,2013-09-19 13:21:00,
2013-09-19 08:42:00,74.0,73.0,29.81,SSW,194,0.0,3.0,97,0.03,,,0.03,,2013-09-19 13:42:00,
2013-09-19 08:52:00,74.0,73.0,29.82,SSW,204,1.0,4.0,97,0.00,,,0.03,,2013-09-19 13:52:00,
2013-09-19 09:22:00,74.0,73.0,29.82,SSW,203,1.0,3.0,97,0.00,,,0.03,,2013-09-19 14:22:00,
2013-09-19 09:52:00,75.0,74.0,29.82,SSW,194,0.0,6.0,97,0.00,,,0.03,,2013-09-19 14:52:00,
2013-09-19 10:02:00,75.0,74.0,29.82,SSW,194,0.0,6.0,97,0.00,,,0.03,,2013-09-19 15:02:00,
2013-09-19 10:22:00,76.0,74.0,29.83,SSW,212,0.0,4.0,94,0.00,,,0.03,,2013-09-19 15:22:00,
2013-09-19 10:43:00,76.0,73.0,29.83,SSW,201,1.0,5.0,91,0.00,,,0.03,,2013-09-19 15:43:00,
2013-09-19 10:53:00,77.0,74.0,29.83,SE,129,4.0,7.0,90,0.00,,,0.03,,2013-09-19 15:53:00,
2013-09-19 11:04:00,77.0,74.0,29.83,SE,129,4.0,7.0,90,0.00,,,0.03,,2013-09-19 16:04:00,
2013-09-19 11:24:00,79.0,74.0,29.83,South,186,3.0,8.0,86,0.00,,,0.03,,2013-09-19 16:24:00,
2013-09-19 11:42:00,79.0,74.0,29.83,ESE,120,2.0,11.0,85,0.00,,,0.03,,2013-09-19 16:42:00,
2013-09-19 11:52:00,79.0,73.0,29.83,SSE,156,2.0,8.0,82,0.00,,,0.03,,2013-09-19 16:52:00,
2013-09-19 12:12:00,81.0,74.0,29.83,South,190,1.0,4.0,79,0.00,,,0.03,,2013-09-19 17:12:00,
2013-09-19 12:23:00,80.0,72.0,29.82,South,174,3.0,8.0,78,0.00,,,0.03,,2013-09-19 17:23:00,
2013-09-19 12:53:00,81.0,74.0,29.82,South,172,0.0,3.0,80,0.00,,,0.03,,2013-09-19 17:53:00,
2013-09-19 13:11:00,80.0,75.0,29.81,SSE,156,0.0,2.0,85,0.03,,,0.06,,2013-09-19 18:11:00,
2013-09-19 13:22:00,80.0,75.0,29.81,SSE,148,0.0,6.0,84,0.03,,,0.06,,2013-09-19 18:22:00,
2013-09-19 13:42:00,84.0,74.0,29.80,WSW,243,3.0,8.0,72,0.03,,,0.06,,2013-09-19 18:42:00,
2013-09-19 13:52:00,86.0,72.0,29.79,SSE,162,3.0,8.0,64,0.03,,,0.06,,2013-09-19 18:52:00,
2013-09-19 14:12:00,87.0,73.0,29.78,South,173,3.0,9.0,64,0.00,,,0.06,,2013-09-19 19:12:00,
2013-09-19 14:22:00,88.0,72.0,29.77,SE,140,3.0,9.0,60,0.00,,,0.06,,2013-09-19 19:22:00,
2013-09-19 14:52:00,90.0,70.0,29.75,West,260,3.0,12.0,52,0.00,,,0.06,,2013-09-19 19:52:00,
2013-09-19 15:12:00,89.0,70.0,29.74,South,179,2.0,10.0,54,0.00,,,0.06,,2013-09-19 20:12:00,
2013-09-19 15:22:00,89.0,70.0,29.74,SW,229,2.0,8.0,54,0.00,,,0.06,,2013-09-19 20:22:00,
2013-09-19 15:42:00,90.0,71.0,29.73,SSW,195,2.0,9.0,53,0.00,,,0.06,,2013-09-19 20:42:00,
2013-09-19 15:52:00,90.0,73.0,29.72,SE,135,6.0,14.0,57,0.00,,,0.06,,2013-09-19 20:52:00,
2013-09-19 16:12:00,88.0,72.0,29.72,SE,131,7.0,16.0,60,0.00,,,0.06,,2013-09-19 21:12:00,
2013-09-19 16:22:00,87.0,71.0,29.71,ESE,106,5.0,13.0,59,0.00,,,0.06,,2013-09-19 21:22:00,
2013-09-19 16:44:00,87.0,71.0,29.71,South,190,1.0,7.0,60,0.00,,,0.06,,2013-09-19 21:44:00,
2013-09-19 16:55:00,86.0,73.0,29.72,SW,215,2.0,13.0,66,0.00,,,0.06,,2013-09-19 21:55:00,
2013-09-19 17:14:00,82.0,72.0,29.71,SSE,157,1.0,3.0,73,0.00,,,0.06,,2013-09-19 22:14:00,
2013-09-19 17:24:00,82.0,73.0,29.70,SSW,198,0.0,3.0,75,0.00,,,0.06,,2013-09-19 22:24:00,
2013-09-19 17:53:00,83.0,73.0,29.70,SW,226,0.0,2.0,71,0.00,,,0.06,,2013-09-19 22:53:00,
2013-09-19 18:12:00,85.0,73.0,29.70,SW,231,0.0,2.0,68,0.00,,,0.06,,2013-09-19 23:12:00,
2013-09-19 18:22:00,85.0,73.0,29.70,SE,129,0.0,5.0,68,0.00,,,0.06,,2013-09-19 23:22:00,
2013-09-19 18:53:00,85.0,73.0,29.70,SE,139,0.0,1.0,67,0.00,,,0.06,,2013-09-19 23:53:00,
2013-09-19 19:12:00,85.0,74.0,29.70,SE,139,0.0,1.0,69,0.00,,,0.06,,2013-09-20 00:12:00,
2013-09-19 19:22:00,84.0,74.0,29.70,SE,140,0.0,2.0,71,0.00,,,0.06,,2013-09-20 00:22:00,
2013-09-19 19:42:00,82.0,73.0,29.70,WSW,237,0.0,2.0,74,0.00,,,0.06,,2013-09-20 00:42:00,
2013-09-19 19:52:00,81.0,72.0,29.72,SSW,201,3.0,9.0,75,0.00,,,0.06,,2013-09-20 00:52:00,
2013-09-19 20:12:00,77.0,72.0,29.71,SW,221,3.0,8.0,84,0.01,,,0.07,,2013-09-20 01:12:00,
2013-09-19 20:22:00,75.0,71.0,29.72,SW,214,1.0,5.0,88,0.01,,,0.07,,2013-09-20 01:22:00,
2013-09-19 20:42:00,74.0,71.0,29.72,SW,218,1.0,4.0,89,0.01,,,0.07,,2013-09-20 01:42:00,
2013-09-19 20:52:00,74.0,70.0,29.73,SW,228,0.0,2.0,88,0.01,,,0.07,,2013-09-20 01:52:00,
2013-09-19 21:12:00,75.0,71.0,29.73,SSW,202,0.0,3.0,87,0.00,,,0.07,,2013-09-20 02:12:00,
2013-09-19 21:22:00,75.0,71.0,29.74,WSW,257,0.0,3.0,86,0.00,,,0.07,,2013-09-20 02:22:00,
2013-09-19 21:52:00,76.0,72.0,29.75,SSW,193,1.0,3.0,86,0.00,,,0.07,,2013-09-20 02:52:00,
2013-09-19 22:02:00,76.0,72.0,29.75,SSW,193,1.0,3.0,86,0.00,,,0.07,,2013-09-20 03:02:00,
2013-09-19 22:12:00,76.0,72.0,29.75,SSW,193,1.0,3.0,86,0.00,,,0.07,,2013-09-20 03:12:00,
2013-09-19 22:23:00,76.0,73.0,29.75,SSW,207,1.0,7.0,89,0.00,,,0.07,,2013-09-20 03:23:00,
2013-09-19 22:45:00,76.0,73.0,29.75,SSW,212,1.0,7.0,89,0.00,,,0.07,,2013-09-20 03:45:00,
2013-09-19 22:56:00,75.0,72.0,29.75,SSW,201,1.0,5.0,90,0.00,,,0.07,,2013-09-20 03:56:00,
2013-09-19 23:14:00,75.0,72.0,29.75,SW,235,1.0,8.0,91,0.00,,,0.07,,2013-09-20 04:14:00,
2013-09-19 23:24:00,75.0,72.0,29.75,SSW,213,2.0,6.0,91,0.00,,,0.07,,2013-09-20 04:24:00,
2013-09-19 23:44:00,75.0,73.0,29.75,SSW,194,1.0,5.0,92,0.00,,,0.07,,2013-09-20 04:44:00,
2013-09-19 23:54:00,75.0,73.0,29.75,South,176,1.0,6.0,92,0.00,,,0.07,,2013-09-20 04:54:00,